Time;durP1;ratioP1;P1;durP2;ratioP2;P2;SDS_P1;SDS_P2;PMS_P1;PMS_P2;Temp;Humidity;BMP_temperature;BMP_pressure;BME280_temperature;BME280_humidity;BME280_pressure;Samples;Min_cycle;Max_cycle;Signal;HPM_P1;HPM_P2
2022/04/26 03:37:25;;;;;;;4.75;1.30;;;;;;;13.79;71.36;99601.47;1688054;83;21099;-52
2022/04/26 03:39:51;;;;;;;3.80;1.15;;;;;;;13.82;71.39;99607.77;1676646;83;21123;-52
2022/04/26 03:42:19;;;;;;;5.92;1.87;;;;;;;13.86;71.27;99612.23;1693848;83;21071;-53
2022/04/26 03:44:46;;;;;;;3.87;1.55;;;;;;;13.86;71.08;99616.19;1683565;83;21075;-53
2022/04/26 03:47:13;;;;;;;3.92;1.32;;;;;;;13.85;71.14;99622.46;1680167;83;21058;-53
2022/04/26 03:49:41;;;;;;;5.40;1.32;;;;;;;13.90;71.05;99623.64;1677172;83;21069;-53
2022/04/26 03:52:08;;;;;;;3.08;1.40;;;;;;;14.01;70.87;99629.10;1681614;83;21151;-53
2022/04/26 03:58:42;;;;;;;5.83;1.87;;;;;;;14.07;70.49;99632.90;1684310;83;21089;-53
2022/04/26 04:01:10;;;;;;;3.90;1.35;;;;;;;14.01;70.56;99633.58;1668150;85;21097;-53
2022/04/26 04:03:38;;;;;;;6.25;1.82;;;;;;;13.93;70.70;99635.20;1685029;83;21066;-53
2022/04/26 04:06:05;;;;;;;7.05;1.80;;;;;;;13.91;70.87;99640.33;1686018;84;21167;-54
2022/04/26 04:08:33;;;;;;;6.08;1.47;;;;;;;13.87;70.94;99639.83;1679669;83;21019;-53
2022/04/26 04:11:00;;;;;;;6.87;1.40;;;;;;;13.85;71.07;99640.97;1671924;84;21018;-54
2022/04/26 04:13:27;;;;;;;4.95;1.40;;;;;;;13.85;71.05;99647.11;1674375;83;21125;-54
2022/04/26 04:15:54;;;;;;;4.67;1.50;;;;;;;13.89;71.16;99659.00;1670983;84;21078;-54
2022/04/26 04:21:08;;;;;;;3.33;1.17;;;;;;;13.98;71.29;99660.34;1670933;84;21524;-54
2022/04/26 04:23:37;;;;;;;4.50;1.80;;;;;;;14.00;71.36;99662.33;1682429;83;21069;-54
2022/04/26 04:26:04;;;;;;;3.58;1.30;;;;;;;13.99;71.31;99660.69;1681192;83;21040;-54
2022/04/26 04:28:33;;;;;;;7.70;1.77;;;;;;;14.03;71.41;99664.14;1685532;83;21088;-54
2022/04/26 04:31:02;;;;;;;3.45;1.00;;;;;;;14.07;71.46;99663.32;1680858;83;21152;-54
2022/04/26 04:33:28;;;;;;;4.42;1.52;;;;;;;14.15;71.30;99665.16;1654439;85;21101;-54
2022/04/26 04:35:54;;;;;;;4.08;1.50;;;;;;;14.24;71.04;99669.45;1636088;85;21149;-53
2022/04/26 04:38:21;;;;;;;4.45;1.57;;;;;;;14.29;70.78;99666.67;1618716;86;21082;-53
2022/04/26 04:40:49;;;;;;;6.30;1.77;;;;;;;14.33;70.53;99668.99;1645240;85;21113;-52
2022/04/26 04:43:17;;;;;;;3.52;1.35;;;;;;;14.30;70.47;99669.62;1645965;85;21548;-52
2022/04/26 04:45:44;;;;;;;4.50;1.50;;;;;;;14.28;70.46;99673.45;1644182;85;21025;-53
2022/04/26 04:48:10;;;;;;;4.00;1.27;;;;;;;14.26;70.54;99676.25;1646034;85;21050;-53
2022/04/26 04:50:37;;;;;;;4.50;1.40;;;;;;;14.24;70.61;99675.59;1624918;87;21066;-53
2022/04/26 04:53:05;;;;;;;4.55;1.22;;;;;;;14.29;70.69;99676.44;1632710;85;21072;-53
2022/04/26 04:55:32;;;;;;;3.33;1.27;;;;;;;14.36;70.52;99681.91;1648400;85;21131;-53
2022/04/26 04:58:00;;;;;;;3.22;1.07;;;;;;;14.43;70.55;99681.06;1656942;85;21030;-53
2022/04/26 05:00:27;;;;;;;5.62;1.47;;;;;;;14.52;70.50;99689.00;1659794;86;21156;-53
2022/04/26 05:02:55;;;;;;;4.53;1.30;;;;;;;14.51;69.94;99684.22;1634832;85;21186;-53
2022/04/26 05:05:23;;;;;;;3.92;1.65;;;;;;;14.49;70.05;99691.47;1629305;86;21047;-52
2022/04/26 05:07:52;;;;;;;7.28;2.05;;;;;;;14.49;70.06;99694.12;1622630;86;21221;-52
2022/04/26 05:10:19;;;;;;;4.87;1.50;;;;;;;14.45;70.09;99696.78;1630755;86;21074;-53
2022/04/26 05:12:47;;;;;;;3.33;1.17;;;;;;;14.45;69.97;99694.13;1642548;85;21627;-53
2022/04/26 05:15:14;;;;;;;5.15;1.00;;;;;;;14.47;69.73;99689.49;1620367;86;21101;-53
2022/04/26 05:20:00;;;;;;;4.90;2.12;;;;;;;14.56;69.81;99690.31;1776758;77;22663;-54
2022/04/26 05:22:27;;;;;;;4.78;1.45;;;;;;;14.57;69.70;99703.39;1752800;79;21030;-54
2022/04/26 05:24:58;;;;;;;5.03;1.80;;;;;;;14.56;69.57;99707.52;1765697;80;21161;-52
2022/04/26 05:27:29;;;;;;;4.83;1.87;;;;;;;14.53;69.57;99706.55;1752817;80;21706;-54
2022/04/26 05:29:56;;;;;;;4.17;1.47;;;;;;;14.51;69.83;99706.72;1753233;80;21097;-55
2022/04/26 05:32:26;;;;;;;4.30;1.70;;;;;;;14.51;69.79;99719.95;1739332;81;21547;-54
2022/04/26 05:34:58;;;;;;;3.52;1.20;;;;;;;14.52;69.71;99726.06;1692604;83;21078;-54
2022/04/26 05:37:31;;;;;;;4.60;1.80;;;;;;;14.53;69.61;99727.73;1699500;82;21155;-54
2022/04/26 05:40:02;;;;;;;5.37;1.30;;;;;;;14.55;69.53;99731.86;1698124;81;21081;-53
2022/04/26 05:42:30;;;;;;;5.20;1.77;;;;;;;14.54;69.56;99732.87;1710160;82;22264;-53
2022/04/26 05:44:57;;;;;;;5.12;1.40;;;;;;;14.49;69.70;99730.70;1700325;83;21026;-53
2022/04/26 05:47:24;;;;;;;3.30;1.30;;;;;;;14.49;69.93;99728.53;1688462;83;21091;-53
2022/04/26 05:49:51;;;;;;;4.72;1.55;;;;;;;14.48;69.85;99726.89;1702097;82;21237;-53
2022/04/26 05:52:17;;;;;;;5.15;1.40;;;;;;;14.48;69.82;99729.04;1692429;83;21070;-52
2022/04/26 05:54:44;;;;;;;4.90;1.50;;;;;;;14.56;69.69;99728.70;1691628;83;21090;-53
2022/04/26 05:57:11;;;;;;;4.87;1.65;;;;;;;14.61;69.46;99721.97;1692682;83;21130;-53
2022/04/26 05:59:38;;;;;;;6.00;1.80;;;;;;;14.62;69.29;99731.55;1691015;82;21211;-54
2022/04/26 06:02:04;;;;;;;4.40;1.60;;;;;;;14.64;69.33;99733.56;1691701;83;21173;-53
2022/04/26 06:04:31;;;;;;;3.87;1.20;;;;;;;14.67;69.27;99730.56;1691302;82;21090;-52
2022/04/26 06:07:00;;;;;;;5.55;1.65;;;;;;;14.71;69.03;99735.53;1731784;81;21590;-53
2022/04/26 06:09:27;;;;;;;4.70;1.30;;;;;;;14.72;68.90;99742.49;1702676;83;21107;-53
2022/04/26 06:11:56;;;;;;;5.05;1.20;;;;;;;14.75;68.86;99744.81;1690201;82;21055;-54
2022/04/26 06:14:24;;;;;;;3.33;0.80;;;;;;;14.84;68.81;99751.75;1694175;82;21089;-53
2022/04/26 06:16:52;;;;;;;4.83;1.40;;;;;;;14.98;68.39;99758.22;1698470;83;21361;-53
2022/04/26 06:19:18;;;;;;;3.20;1.22;;;;;;;15.08;68.04;99762.00;1696892;82;21532;-53
2022/04/26 06:21:46;;;;;;;5.28;1.80;;;;;;;15.17;67.77;99757.03;1695516;83;21170;-53
2022/04/26 06:24:13;;;;;;;4.37;1.20;;;;;;;15.26;67.84;99752.55;1693513;82;21091;-53
2022/04/26 06:26:40;;;;;;;5.47;1.17;;;;;;;15.37;67.71;99761.47;1721395;81;21151;-53
2022/04/26 06:29:06;;;;;;;2.98;1.00;;;;;;;15.44;66.71;99763.77;1728569;81;21047;-53
2022/04/26 06:31:35;;;;;;;4.92;1.62;;;;;;;15.48;66.43;99760.27;1729413;81;21033;-53
2022/04/26 06:34:02;;;;;;;3.95;1.17;;;;;;;15.52;66.16;99759.77;1737720;81;21027;-53
2022/04/26 06:36:28;;;;;;;3.67;1.50;;;;;;;15.53;65.76;99764.09;1738035;81;21107;-54
2022/04/26 06:38:56;;;;;;;3.17;1.35;;;;;;;15.57;65.87;99753.97;1705452;83;21225;-53
2022/04/26 06:41:22;;;;;;;3.62;1.07;;;;;;;15.69;65.52;99763.20;1703651;82;21065;-53
2022/04/26 06:43:49;;;;;;;3.98;1.30;;;;;;;15.75;65.17;99763.00;1707838;82;21088;-53
2022/04/26 06:46:16;;;;;;;5.20;1.72;;;;;;;15.87;65.13;99759.02;1729389;81;21062;-53
2022/04/26 06:48:43;;;;;;;2.72;1.00;;;;;;;15.95;64.82;99761.64;1711931;81;21102;-53
2022/04/26 06:51:12;;;;;;;3.00;1.20;;;;;;;15.99;64.15;99760.79;1724266;81;22692;-53
2022/04/26 06:53:38;;;;;;;3.45;1.12;;;;;;;15.99;63.56;99764.77;1717855;81;21490;-53
2022/04/26 06:56:05;;;;;;;4.50;1.80;;;;;;;15.93;63.97;99756.16;1736598;80;21065;-52
2022/04/26 06:58:33;;;;;;;3.50;1.15;;;;;;;15.85;63.18;99759.66;1741203;81;21039;-54
2022/04/26 07:01:00;;;;;;;3.25;1.25;;;;;;;15.78;63.32;99761.36;1704928;82;21067;-53
2022/04/26 07:03:27;;;;;;;3.15;0.75;;;;;;;15.69;63.49;99763.70;1693358;82;21132;-52
2022/04/26 07:05:54;;;;;;;4.28;1.45;;;;;;;15.65;63.44;99771.66;1705104;82;21091;-52
2022/04/26 07:08:20;;;;;;;6.67;1.20;;;;;;;15.68;63.34;99768.16;1707166;83;21027;-52
2022/04/26 07:10:47;;;;;;;4.72;1.70;;;;;;;15.77;63.53;99767.17;1707390;82;21688;-52
2022/04/26 07:13:18;;;;;;;3.25;0.93;;;;;;;15.87;63.39;99771.44;1701925;83;21094;-52
2022/04/26 07:15:44;;;;;;;4.62;1.00;;;;;;;15.98;63.22;99771.06;1723775;82;21176;-52
2022/04/26 07:18:13;;;;;;;2.85;0.90;;;;;;;16.09;63.24;99768.55;1718362;81;21552;-52
2022/04/26 07:20:44;;;;;;;2.40;0.90;;;;;;;16.22;62.21;99766.63;1700114;82;21061;-53
2022/04/26 07:23:12;;;;;;;3.72;1.25;;;;;;;16.35;61.94;99772.20;1693502;82;21114;-53
2022/04/26 07:25:40;;;;;;;4.62;1.20;;;;;;;16.44;61.58;99769.83;1723924;82;21284;-52
2022/04/26 07:28:07;;;;;;;3.02;1.15;;;;;;;16.54;60.66;99770.91;1730663;81;21146;-52
2022/04/26 07:30:35;;;;;;;4.35;1.00;;;;;;;16.63;60.15;99777.00;1732414;81;21043;-52
2022/04/26 07:35:50;;;;;;;3.05;1.15;;;;;;;16.67;59.71;99780.95;1732906;81;21543;-52
2022/04/26 07:38:18;;;;;;;2.47;0.88;;;;;;;16.69;59.35;99777.12;1719279;81;21121;-53
2022/04/26 07:40:46;;;;;;;2.83;1.10;;;;;;;16.70;58.67;99784.08;1723789;81;21164;-53
2022/04/26 07:43:13;;;;;;;4.15;0.80;;;;;;;16.67;58.23;99787.59;1723018;81;21586;-52
2022/04/26 07:45:42;;;;;;;6.35;0.88;;;;;;;16.60;57.16;99780.02;1691398;83;21062;-53
2022/04/26 07:48:08;;;;;;;6.40;0.80;;;;;;;16.50;57.02;99790.35;1697579;83;21133;-53
2022/04/26 07:50:35;;;;;;;2.33;0.75;;;;;;;16.42;57.40;99787.74;1698558;83;21105;-52
2022/04/26 07:53:04;;;;;;;3.40;1.17;;;;;;;16.35;57.45;99793.44;1692090;83;21065;-52
2022/04/26 07:55:30;;;;;;;6.72;1.17;;;;;;;16.30;58.33;99793.95;1695647;82;21604;-52
2022/04/26 07:57:58;;;;;;;2.58;0.80;;;;;;;16.28;58.53;99793.81;1699601;81;21051;-52
2022/04/26 08:00:25;;;;;;;2.45;0.72;;;;;;;16.30;58.53;99796.61;1699828;81;21710;-51
2022/04/26 08:02:52;;;;;;;4.72;0.90;;;;;;;16.34;58.65;99797.11;1691620;83;21660;-52
2022/04/26 08:05:19;;;;;;;5.25;1.07;;;;;;;16.37;58.51;99803.37;1692184;83;21111;-55
2022/04/26 08:07:49;;;;;;;3.77;0.88;;;;;;;16.35;58.73;99803.55;1696862;82;21103;-52
2022/04/26 08:10:16;;;;;;;2.77;0.90;;;;;;;16.33;58.46;99807.39;1697133;82;21046;-52
2022/04/26 08:12:43;;;;;;;3.55;0.90;;;;;;;16.31;58.76;99810.73;1696093;82;21095;-53
2022/04/26 08:15:12;;;;;;;4.50;0.72;;;;;;;16.28;58.65;99807.09;1706950;81;20999;-52
2022/04/26 08:17:38;;;;;;;3.00;0.98;;;;;;;16.26;58.98;99811.75;1703852;82;21449;-53
2022/04/26 08:20:10;;;;;;;3.37;0.95;;;;;;;16.24;59.05;99816.38;1701865;82;21062;-53
2022/04/26 08:22:38;;;;;;;4.62;1.12;;;;;;;16.26;59.14;99810.42;1709414;82;21139;-53
2022/04/26 08:27:52;;;;;;;2.15;0.90;;;;;;;16.26;59.54;99817.87;1702817;82;21089;-52
2022/04/26 08:30:20;;;;;;;4.70;1.30;;;;;;;16.31;59.67;99820.02;1696309;82;21161;-52
2022/04/26 08:32:48;;;;;;;2.83;1.00;;;;;;;16.40;59.17;99832.23;1696878;82;21008;-53
2022/04/26 08:35:19;;;;;;;7.25;1.95;;;;;;;16.52;59.32;99826.88;1713604;81;21596;-52
2022/04/26 08:37:46;;;;;;;2.55;0.82;;;;;;;16.68;59.25;99822.45;1714767;82;21534;-52
2022/04/26 08:40:14;;;;;;;2.52;0.95;;;;;;;16.82;57.95;99832.30;1703870;82;21335;-53
2022/04/26 08:42:44;;;;;;;3.02;1.10;;;;;;;16.87;57.39;99825.17;1705439;83;21466;-53
2022/04/26 08:45:17;;;;;;;4.25;1.27;;;;;;;16.90;57.09;99834.13;1711279;81;21323;-53
2022/04/26 08:53:20;;;;;;;4.03;0.82;;;;;;;16.75;57.15;99833.20;1707287;81;20524;-52
2022/04/26 08:55:49;;;;;;;3.50;1.00;;;;;;;16.69;57.21;99830.25;1705895;82;21151;-52
2022/04/26 08:58:18;;;;;;;2.77;0.90;;;;;;;16.73;57.49;99833.37;1709756;82;21086;-53
2022/04/26 09:01:18;;;;;;;4.12;1.07;;;;;;;16.81;57.58;99829.83;1715567;82;21566;-52
2022/04/26 09:03:57;;;;;;;3.10;0.93;;;;;;;16.85;55.86;99837.30;1713450;81;21062;-52
2022/04/26 09:06:40;;;;;;;2.62;0.90;;;;;;;16.83;56.02;99849.91;1709303;82;21078;-52
2022/04/26 09:09:10;;;;;;;4.40;1.07;;;;;;;16.79;56.61;99835.31;1706676;82;21151;-52
2022/04/26 09:11:38;;;;;;;2.58;0.95;;;;;;;16.81;55.82;99861.23;1705257;82;21054;-52
2022/04/26 09:14:08;;;;;;;2.45;0.80;;;;;;;16.82;56.34;99846.92;1709536;81;21074;-52
2022/04/26 09:16:35;;;;;;;1.95;0.88;;;;;;;16.83;56.70;99845.93;1729451;81;21123;-52
2022/04/26 09:19:08;;;;;;;3.35;0.93;;;;;;;16.86;57.25;99855.39;1736198;81;21082;-53
2022/04/26 09:21:36;;;;;;;3.60;1.00;;;;;;;16.88;57.02;99851.57;1721944;81;22302;-52
2022/04/26 09:24:06;;;;;;;3.45;1.10;;;;;;;16.92;56.75;99855.20;1706426;82;21547;-53
2022/04/26 09:26:35;;;;;;;3.15;1.10;;;;;;;16.93;56.39;99852.38;1724760;81;21549;-52
2022/04/26 09:29:05;;;;;;;3.05;1.42;;;;;;;16.96;56.69;99857.31;1734937;81;21109;-52
2022/04/26 09:31:37;;;;;;;3.10;0.95;;;;;;;16.97;56.69;99854.17;1713812;82;21595;-52
2022/04/26 09:34:12;;;;;;;3.50;1.10;;;;;;;16.96;56.47;99848.52;1709450;82;21082;-52
2022/04/26 09:36:50;;;;;;;5.20;1.77;;;;;;;16.96;56.51;99846.68;1691743;82;21090;-52
2022/04/26 09:39:19;;;;;;;5.08;1.35;;;;;;;17.00;56.49;99855.15;1704952;82;21083;-52
2022/04/26 09:41:50;;;;;;;3.30;1.07;;;;;;;17.04;56.90;99853.77;1704858;82;21203;-53
2022/04/26 09:44:16;;;;;;;4.47;1.10;;;;;;;17.13;56.46;99854.05;1693813;82;21097;-52
2022/04/26 09:46:53;;;;;;;3.35;1.20;;;;;;;17.25;56.09;99857.11;1705792;82;21144;-52
2022/04/26 09:49:22;;;;;;;4.72;1.40;;;;;;;17.34;56.16;99856.02;1708977;82;21036;-53
2022/04/26 09:51:59;;;;;;;5.20;1.60;;;;;;;17.49;55.93;99857.38;1705109;82;21052;-51
2022/04/26 09:54:22;;;;;;;2.47;0.82;;;;;;;17.63;55.43;99861.06;1695388;83;21053;-52
2022/04/26 09:56:50;;;;;;;3.80;0.95;;;;;;;17.76;54.79;99860.45;1696438;82;21070;-52
2022/04/26 09:59:32;;;;;;;2.85;1.10;;;;;;;17.82;53.33;99857.88;1705870;82;21168;-53
2022/04/26 10:01:58;;;;;;;2.87;0.78;;;;;;;17.83;53.47;99857.38;1703045;82;21117;-54
2022/04/26 10:04:28;;;;;;;3.58;0.80;;;;;;;17.87;52.12;99852.53;1700805;82;21082;-53
2022/04/26 10:07:06;;;;;;;3.75;1.07;;;;;;;17.86;52.44;99855.67;1708248;82;21106;-52
2022/04/26 10:09:34;;;;;;;2.15;0.80;;;;;;;17.86;52.31;99850.36;1713933;81;21054;-52
2022/04/26 10:12:02;;;;;;;3.55;0.60;;;;;;;17.91;51.73;99858.64;1721892;81;21401;-53
2022/04/26 10:14:30;;;;;;;2.83;0.70;;;;;;;17.96;51.29;99860.77;1709993;81;21475;-52
2022/04/26 10:16:57;;;;;;;3.55;0.98;;;;;;;17.98;50.10;99866.20;1705709;83;21617;-53
2022/04/26 10:19:38;;;;;;;3.12;0.50;;;;;;;18.01;49.82;99868.52;1708400;82;21409;-53
2022/04/26 10:22:08;;;;;;;3.20;0.82;;;;;;;18.01;49.73;99867.69;1685712;82;21160;-53
2022/04/26 10:24:35;;;;;;;2.52;0.57;;;;;;;17.98;49.82;99881.36;1716282;81;21173;-53
2022/04/26 10:27:20;;;;;;;3.00;0.82;;;;;;;17.94;50.60;99880.91;1704965;83;21145;-52
2022/04/26 10:29:47;;;;;;;2.65;0.80;;;;;;;17.88;50.77;99881.63;1711079;82;21081;-53
2022/04/26 10:32:32;;;;;;;3.75;0.78;;;;;;;17.85;51.02;99875.82;1724701;81;21204;-53
2022/04/26 10:35:28;;;;;;;3.80;0.90;;;;;;;17.82;50.26;99896.98;1728647;81;21066;-52
2022/04/26 10:38:16;;;;;;;2.67;0.90;;;;;;;17.73;50.84;99881.58;1701692;83;21178;-53
2022/04/26 10:41:07;;;;;;;2.02;0.65;;;;;;;17.70;51.18;99885.96;1691034;82;21149;-52
2022/04/26 10:43:34;;;;;;;2.17;0.60;;;;;;;17.68;51.34;99886.63;1696275;82;21085;-52
2022/04/26 10:46:15;;;;;;;2.85;0.60;;;;;;;17.67;51.54;99898.77;1701273;82;21118;-52
2022/04/26 10:48:43;;;;;;;3.87;0.60;;;;;;;17.67;51.81;99896.11;1699297;82;21023;-52
2022/04/26 10:51:36;;;;;;;2.72;0.65;;;;;;;17.63;52.15;99896.98;1700445;83;21169;-53
2022/04/26 10:54:04;;;;;;;2.77;0.75;;;;;;;17.63;52.92;99908.47;1706833;82;21265;-54
2022/04/26 10:56:32;;;;;;;1.87;0.68;;;;;;;17.68;53.38;99900.44;1691314;83;21082;-53
2022/04/26 10:58:59;;;;;;;3.70;0.75;;;;;;;17.70;53.98;99905.06;1730732;81;21131;-52
2022/04/26 11:01:28;;;;;;;3.58;0.60;;;;;;;17.75;54.93;99904.02;1701689;83;21065;-52
2022/04/26 11:03:57;;;;;;;3.87;0.90;;;;;;;17.80;54.81;99898.98;1699944;82;21054;-52
2022/04/26 11:06:39;;;;;;;2.95;0.90;;;;;;;17.85;54.04;99897.92;1708487;81;21665;-53
2022/04/26 11:09:11;;;;;;;2.08;0.65;;;;;;;17.93;54.39;99895.22;1728051;80;21528;-52
2022/04/26 11:11:51;;;;;;;3.55;0.95;;;;;;;18.09;53.88;99902.70;1717952;81;21054;-53
2022/04/26 11:14:19;;;;;;;3.20;0.98;;;;;;;18.12;53.28;99897.01;1737125;81;21082;-53
2022/04/26 11:17:00;;;;;;;3.77;0.88;;;;;;;18.12;52.50;99902.33;1725995;81;21548;-53
2022/04/26 11:19:35;;;;;;;3.72;1.22;;;;;;;18.08;52.79;99904.54;1734144;81;21082;-54
2022/04/26 11:22:06;;;;;;;4.97;1.05;;;;;;;18.08;52.25;99911.20;1735311;80;21063;-54
2022/04/26 11:30:08;;;;;;;3.20;0.87;;;;;;;17.96;52.16;99910.83;1711269;81;21173;-52
2022/04/26 11:32:42;;;;;;;2.15;0.80;;;;;;;17.90;51.98;99919.53;1729362;81;21067;-52
2022/04/26 11:35:16;;;;;;;3.83;0.93;;;;;;;17.78;52.23;99917.78;1714715;81;21006;-51
2022/04/26 11:37:49;;;;;;;2.25;0.80;;;;;;;17.66;52.52;99920.57;1708849;82;21618;-53
2022/04/26 11:40:31;;;;;;;3.02;0.85;;;;;;;17.59;53.19;99929.77;1699481;82;21108;-52
2022/04/26 11:43:08;;;;;;;2.25;0.70;;;;;;;17.54;52.77;99923.35;1699197;82;21139;-53
2022/04/26 11:45:35;;;;;;;;;;;;;;;17.48;52.58;99934.19;1701676;81;21065;-53
2022/04/26 11:48:01;;;;;;;16.35;3.42;;;;;;;17.39;52.94;99941.92;1704465;82;20167;-53
2022/04/26 11:50:31;;;;;;;2.95;0.80;;;;;;;17.21;52.14;99937.70;1724507;81;21095;-53
2022/04/26 11:53:11;;;;;;;3.45;1.12;;;;;;;17.11;51.79;99959.70;1726565;81;21125;-53
2022/04/26 11:55:41;;;;;;;3.87;1.30;;;;;;;17.01;52.92;99943.16;1692065;83;21137;-52
2022/04/26 11:58:22;;;;;;;3.30;1.00;;;;;;;16.89;54.14;99942.25;1712948;82;21054;-52
2022/04/26 12:01:10;;;;;;;3.17;1.00;;;;;;;16.82;55.24;99949.22;1725797;81;21159;-54
2022/04/26 12:03:54;;;;;;;3.60;1.17;;;;;;;16.81;55.92;99952.89;1702206;82;21224;-54
2022/04/26 12:06:35;;;;;;;3.83;1.10;;;;;;;16.80;57.59;99951.73;1696978;83;21063;-53
2022/04/26 12:09:03;;;;;;;3.50;1.00;;;;;;;16.74;59.35;99961.20;1721413;82;21877;-54
2022/04/26 12:11:35;;;;;;;4.92;0.88;;;;;;;16.76;59.69;99956.57;1717240;82;21042;-52
2022/04/26 12:14:14;;;;;;;2.33;0.78;;;;;;;16.84;60.07;99960.52;1687336;83;21085;-53
2022/04/26 12:16:55;;;;;;;4.53;1.22;;;;;;;16.93;60.28;99949.85;1703268;83;21074;-52
2022/04/26 12:19:37;;;;;;;4.40;1.30;;;;;;;17.11;60.62;99955.72;1699110;82;21180;-53
2022/04/26 12:22:05;;;;;;;4.35;1.50;;;;;;;17.36;60.89;99955.56;1693459;83;21060;-52
2022/04/26 12:24:46;;;;;;;3.65;1.30;;;;;;;17.69;60.28;99951.33;1689441;82;21110;-54
2022/04/26 12:27:26;;;;;;;4.28;1.40;;;;;;;17.95;58.87;99947.75;1699029;83;21058;-52
2022/04/26 12:29:53;;;;;;;4.20;1.80;;;;;;;18.16;58.31;99951.56;1693862;83;21097;-53
2022/04/26 12:32:27;;;;;;;4.03;1.65;;;;;;;18.26;58.13;99950.78;1712977;81;21043;-53
2022/04/26 12:34:58;;;;;;;5.45;1.37;;;;;;;18.30;57.76;99950.72;1697898;81;22137;-53
2022/04/26 12:37:27;;;;;;;4.55;1.25;;;;;;;18.31;57.45;99954.23;1726726;81;22167;-52
2022/04/26 12:39:58;;;;;;;5.45;1.47;;;;;;;18.27;56.22;99952.41;1727171;81;21103;-52
2022/04/26 12:42:38;;;;;;;3.33;1.42;;;;;;;18.22;55.53;99954.80;1728320;81;21081;-53
2022/04/26 12:45:23;;;;;;;4.10;1.52;;;;;;;18.14;55.00;99950.89;1693891;83;21524;-53
2022/04/26 12:50:54;;;;;;;4.92;1.52;;;;;;;17.97;53.45;99955.56;1703674;82;21101;-53
2022/04/26 12:53:28;;;;;;;4.33;1.10;;;;;;;17.92;52.44;99957.46;1711472;82;21113;-52
2022/04/26 12:56:06;;;;;;;3.60;1.40;;;;;;;17.90;53.07;99959.97;1711642;82;21114;-52
2022/04/26 12:58:36;;;;;;;2.83;1.10;;;;;;;17.87;52.31;99953.19;1702480;82;21069;-53
2022/04/26 13:01:05;;;;;;;3.22;1.17;;;;;;;17.82;52.36;99955.02;1706605;82;21209;-52
2022/04/26 13:03:33;;;;;;;3.77;0.95;;;;;;;17.77;51.88;99952.55;1704073;82;21066;-52
2022/04/26 13:06:17;;;;;;;4.45;1.27;;;;;;;17.71;52.10;99950.64;1703040;82;21073;-52
2022/04/26 13:08:48;;;;;;;2.45;0.95;;;;;;;17.72;52.70;99956.27;1706103;82;21121;-52
2022/04/26 13:11:17;;;;;;;4.58;1.40;;;;;;;17.70;52.95;99957.80;1698312;82;21700;-52
2022/04/26 13:13:46;;;;;;;4.33;1.17;;;;;;;17.69;53.84;99956.65;1710479;81;21169;-52
2022/04/26 13:16:13;;;;;;;4.83;1.52;;;;;;;17.77;54.30;99957.88;1706569;82;21038;-52
2022/04/26 13:18:41;;;;;;;3.52;1.25;;;;;;;17.97;54.28;99957.74;1715634;82;21531;-53
2022/04/26 13:21:10;;;;;;;4.47;1.40;;;;;;;18.22;54.01;99953.47;1705322;82;21070;-53
2022/04/26 13:23:38;;;;;;;3.98;1.45;;;;;;;18.49;54.56;99961.83;1698741;82;21023;-53
2022/04/26 13:26:06;;;;;;;4.20;1.45;;;;;;;18.66;53.44;99949.98;1703316;82;21675;-52
2022/04/26 13:28:35;;;;;;;3.65;1.37;;;;;;;18.72;53.09;99958.54;1717588;81;21092;-52
2022/04/26 13:31:03;;;;;;;4.85;1.75;;;;;;;18.70;52.71;99955.76;1691166;82;21607;-52
2022/04/26 13:33:30;;;;;;;3.40;1.50;;;;;;;18.65;52.64;99955.49;1690119;83;21032;-52
2022/04/26 13:35:58;;;;;;;3.55;1.25;;;;;;;18.50;52.47;99949.66;1697604;83;21067;-52
2022/04/26 13:38:25;;;;;;;4.58;2.02;;;;;;;18.36;53.32;99968.64;1715372;81;21812;-52
2022/04/26 13:40:53;;;;;;;3.90;1.50;;;;;;;18.25;53.07;99961.09;1715174;82;21055;-53
2022/04/26 13:43:23;;;;;;;2.98;1.10;;;;;;;18.18;52.31;99980.16;1695437;83;21141;-53
2022/04/26 13:45:50;;;;;;;8.73;4.70;;;;;;;18.10;50.78;99972.25;1725038;81;21443;-53
2022/04/26 13:48:17;;;;;;;8.35;4.67;;;;;;;18.01;51.61;99973.66;1723828;81;21194;-53
2022/04/26 13:50:46;;;;;;;5.83;2.60;;;;;;;18.07;52.31;99970.80;1735177;81;21040;-53
2022/04/26 13:53:12;;;;;;;4.25;2.02;;;;;;;18.53;51.62;99975.94;1736762;81;21079;-53
2022/04/26 13:55:40;;;;;;;4.70;2.25;;;;;;;19.74;49.40;99976.75;1728081;81;21048;-53
2022/04/26 13:58:10;;;;;;;3.98;1.60;;;;;;;21.42;46.60;99970.42;1727778;81;21113;-54
2022/04/26 14:00:36;;;;;;;4.35;1.95;;;;;;;22.74;43.25;99973.16;1729454;81;21066;-53
2022/04/26 14:03:03;;;;;;;4.15;1.85;;;;;;;23.00;42.67;99980.27;1744181;81;21147;-53
2022/04/26 14:05:31;;;;;;;4.47;2.20;;;;;;;22.78;42.65;99977.89;1701683;82;21085;-52
2022/04/26 14:07:58;;;;;;;5.22;2.62;;;;;;;22.29;43.54;99984.63;1714975;82;21058;-52
2022/04/26 14:10:25;;;;;;;5.67;2.10;;;;;;;21.53;45.33;99981.88;1710808;82;21142;-52
2022/04/26 14:12:55;;;;;;;5.90;1.98;;;;;;;20.75;47.02;99987.62;1704977;81;21643;-53
2022/04/26 14:23:42;;;;;;;4.17;1.90;;;;;;;18.63;52.20;99996.98;1714249;81;21058;-52
2022/04/26 14:26:10;;;;;;;4.35;1.90;;;;;;;18.32;53.28;100004.62;1710937;82;21163;-53
2022/04/26 14:28:37;;;;;;;3.98;1.80;;;;;;;18.13;53.87;100007.84;1700254;82;21264;-53
2022/04/26 14:31:06;;;;;;;4.33;2.15;;;;;;;17.92;54.02;99998.72;1705247;82;21034;-52
2022/04/26 14:33:34;;;;;;;5.55;2.30;;;;;;;17.72;54.88;100005.01;1707828;82;21099;-53
2022/04/26 14:36:01;;;;;;;5.00;2.50;;;;;;;17.54;56.74;100017.27;1707010;82;21050;-53
2022/04/26 14:38:29;;;;;;;4.45;2.10;;;;;;;17.33;57.61;100005.95;1704698;82;21071;-52
2022/04/26 14:40:55;;;;;;;4.37;2.02;;;;;;;17.12;58.36;100009.23;1710349;81;21116;-53
2022/04/26 14:43:22;;;;;;;4.12;2.27;;;;;;;16.96;59.25;100008.80;1706035;82;21057;-52
2022/04/26 14:45:50;;;;;;;5.72;2.20;;;;;;;16.82;59.94;100012.17;1711085;82;21062;-52
2022/04/26 14:48:18;;;;;;;5.10;2.30;;;;;;;16.68;59.66;100015.05;1714739;82;21263;-53
2022/04/26 14:50:46;;;;;;;4.60;2.02;;;;;;;16.55;59.56;100018.23;1711342;82;21128;-52
2022/04/26 14:53:14;;;;;;;5.50;2.17;;;;;;;16.43;59.49;100025.73;1702290;82;21999;-53
2022/04/26 14:55:42;;;;;;;4.53;1.90;;;;;;;16.32;59.53;100024.76;1705002;82;21097;-52
2022/04/26 14:58:11;;;;;;;4.15;2.05;;;;;;;16.26;60.25;100028.92;1726680;81;21145;-52
2022/04/26 15:00:37;;;;;;;4.53;2.17;;;;;;;16.30;59.44;100050.66;1709290;81;21081;-53
2022/04/26 15:03:04;;;;;;;4.72;1.65;;;;;;;16.33;58.93;100047.16;1706851;82;21034;-53
2022/04/26 15:05:32;;;;;;;4.62;1.98;;;;;;;16.28;58.65;100060.11;1706397;82;21401;-53
2022/04/26 15:10:46;;;;;;;4.92;1.95;;;;;;;16.24;58.52;100057.95;1698901;82;22102;-52
2022/04/26 15:18:45;;;;;;;5.40;2.27;;;;;;;15.95;59.11;100077.39;1706679;82;21232;-53
2022/04/26 15:21:12;;;;;;;5.10;2.65;;;;;;;15.85;59.67;100079.86;1706489;82;21080;-53
2022/04/26 15:23:40;;;;;;;5.62;2.72;;;;;;;15.74;59.99;100084.46;1708064;81;21055;-53
2022/04/26 15:26:08;;;;;;;4.92;2.62;;;;;;;15.69;60.06;100098.71;1698280;82;21106;-53
2022/04/26 15:28:34;;;;;;;4.92;2.47;;;;;;;15.68;60.26;100091.73;1684271;81;21836;-53
2022/04/26 15:31:02;;;;;;;6.28;3.30;;;;;;;15.65;60.53;100093.41;1717127;82;21202;-53
2022/04/26 15:33:29;;;;;;;6.40;3.45;;;;;;;15.62;60.92;100096.39;1691235;83;21086;-53
2022/04/26 15:35:57;;;;;;;7.12;4.15;;;;;;;15.57;60.97;100098.70;1708400;82;21113;-53
2022/04/26 15:38:27;;;;;;;6.42;3.33;;;;;;;15.57;61.06;100105.33;1730329;80;21030;-53
2022/04/26 15:40:53;;;;;;;6.55;3.87;;;;;;;15.59;60.93;100096.70;1696774;83;21066;-53
2022/04/26 15:43:20;;;;;;;7.37;4.17;;;;;;;15.57;60.96;100095.54;1705484;83;21150;-53
2022/04/26 15:45:46;;;;;;;8.08;4.58;;;;;;;15.55;61.07;100109.94;1692725;83;21173;-52
2022/04/26 15:48:14;;;;;;;7.47;4.03;;;;;;;15.50;61.54;100114.89;1711554;81;21105;-53
2022/04/26 15:50:42;;;;;;;6.12;3.52;;;;;;;15.51;61.56;100120.55;1687260;83;21033;-53
2022/04/26 15:53:09;;;;;;;7.70;4.78;;;;;;;15.49;61.70;100125.19;1725785;81;21629;-53
2022/04/26 15:55:37;;;;;;;8.00;4.30;;;;;;;15.40;61.83;100119.85;1725575;81;21165;-54
2022/04/26 15:58:04;;;;;;;8.10;4.53;;;;;;;15.33;62.26;100131.25;1701653;83;21176;-54
2022/04/26 16:00:32;;;;;;;9.53;5.70;;;;;;;15.27;62.32;100120.80;1699257;82;21046;-54
2022/04/26 16:03:05;;;;;;;7.60;4.95;;;;;;;15.21;62.29;100120.10;1710485;83;21008;-54
2022/04/26 16:05:30;;;;;;;8.23;5.00;;;;;;;15.05;62.40;100119.05;1697184;82;21047;-53